sensor_id;sensor_type;location;lat;lon;timestamp;P1;durP1;ratioP1;P2;durP2;ratioP2
20296;SDS011;10307;40.100;18.336;2022-11-15T00:00:10;25.08;;;15.02;;
20296;SDS011;10307;40.100;18.336;2022-11-15T00:02:54;23.98;;;14.85;;
20296;SDS011;10307;40.100;18.336;2022-11-15T00:05:40;22.15;;;13.75;;
20296;SDS011;10307;40.100;18.336;2022-11-15T00:08:28;26.23;;;14.63;;
20296;SDS011;10307;40.100;18.336;2022-11-15T00:11:14;22.98;;;15.00;;
20296;SDS011;10307;40.100;18.336;2022-11-15T00:13:59;25.13;;;14.52;;
20296;SDS011;10307;40.100;18.336;2022-11-15T00:16:46;21.42;;;13.90;;
20296;SDS011;10307;40.100;18.336;2022-11-15T00:19:30;22.83;;;14.45;;
20296;SDS011;10307;40.100;18.336;2022-11-15T00:22:15;26.98;;;15.82;;
20296;SDS011;10307;40.100;18.336;2022-11-15T00:25:00;26.27;;;14.75;;
20296;SDS011;10307;40.100;18.336;2022-11-15T00:27:45;22.13;;;14.70;;
20296;SDS011;10307;40.100;18.336;2022-11-15T00:30:30;26.00;;;14.32;;
20296;SDS011;10307;40.100;18.336;2022-11-15T00:33:15;23.25;;;14.85;;
20296;SDS011;10307;40.100;18.336;2022-11-15T00:36:01;23.05;;;14.43;;
20296;SDS011;10307;40.100;18.336;2022-11-15T00:38:48;25.33;;;14.25;;
20296;SDS011;10307;40.100;18.336;2022-11-15T00:41:33;19.60;;;13.35;;
20296;SDS011;10307;40.100;18.336;2022-11-15T00:44:18;19.75;;;12.40;;
20296;SDS011;10307;40.100;18.336;2022-11-15T00:47:03;19.17;;;11.57;;
20296;SDS011;10307;40.100;18.336;2022-11-15T00:49:48;18.40;;;11.18;;
20296;SDS011;10307;40.100;18.336;2022-11-15T00:52:32;17.35;;;10.80;;
20296;SDS011;10307;40.100;18.336;2022-11-15T00:55:18;19.50;;;10.50;;
20296;SDS011;10307;40.100;18.336;2022-11-15T00:58:03;20.17;;;11.80;;
20296;SDS011;10307;40.100;18.336;2022-11-15T01:00:48;17.50;;;9.80;;
20296;SDS011;10307;40.100;18.336;2022-11-15T01:03:34;17.20;;;11.05;;
20296;SDS011;10307;40.100;18.336;2022-11-15T01:06:19;17.70;;;10.32;;
20296;SDS011;10307;40.100;18.336;2022-11-15T01:09:04;14.50;;;8.65;;
20296;SDS011;10307;40.100;18.336;2022-11-15T01:11:49;16.73;;;9.63;;
20296;SDS011;10307;40.100;18.336;2022-11-15T01:14:34;18.85;;;10.43;;
20296;SDS011;10307;40.100;18.336;2022-11-15T01:17:19;17.35;;;9.27;;
20296;SDS011;10307;40.100;18.336;2022-11-15T01:20:04;17.00;;;9.52;;
20296;SDS011;10307;40.100;18.336;2022-11-15T01:22:50;17.17;;;9.90;;
20296;SDS011;10307;40.100;18.336;2022-11-15T01:25:34;13.73;;;8.85;;
20296;SDS011;10307;40.100;18.336;2022-11-15T01:28:19;14.02;;;8.90;;
20296;SDS011;10307;40.100;18.336;2022-11-15T01:31:05;14.18;;;8.45;;
20296;SDS011;10307;40.100;18.336;2022-11-15T01:33:51;13.50;;;8.48;;
20296;SDS011;10307;40.100;18.336;2022-11-15T01:36:36;13.52;;;8.65;;
20296;SDS011;10307;40.100;18.336;2022-11-15T01:39:21;13.73;;;8.40;;
20296;SDS011;10307;40.100;18.336;2022-11-15T01:42:08;13.02;;;7.72;;
20296;SDS011;10307;40.100;18.336;2022-11-15T01:44:57;13.13;;;7.28;;
20296;SDS011;10307;40.100;18.336;2022-11-15T01:47:43;12.30;;;8.07;;
20296;SDS011;10307;40.100;18.336;2022-11-15T01:50:37;14.57;;;7.07;;
20296;SDS011;10307;40.100;18.336;2022-11-15T01:53:21;14.10;;;7.20;;
20296;SDS011;10307;40.100;18.336;2022-11-15T01:56:11;12.65;;;6.63;;
20296;SDS011;10307;40.100;18.336;2022-11-15T01:58:59;12.75;;;7.25;;
20296;SDS011;10307;40.100;18.336;2022-11-15T02:01:47;15.05;;;7.47;;
20296;SDS011;10307;40.100;18.336;2022-11-15T02:04:32;11.63;;;7.57;;
20296;SDS011;10307;40.100;18.336;2022-11-15T02:07:22;15.38;;;8.05;;
20296;SDS011;10307;40.100;18.336;2022-11-15T02:10:08;12.90;;;7.38;;
20296;SDS011;10307;40.100;18.336;2022-11-15T02:12:55;14.48;;;7.63;;
20296;SDS011;10307;40.100;18.336;2022-11-15T02:15:49;12.55;;;6.82;;
20296;SDS011;10307;40.100;18.336;2022-11-15T02:18:57;13.52;;;7.43;;
20296;SDS011;10307;40.100;18.336;2022-11-15T02:31:55;11.88;;;7.10;;
20296;SDS011;10307;40.100;18.336;2022-11-15T02:35:00;12.63;;;7.63;;
20296;SDS011;10307;40.100;18.336;2022-11-15T02:38:16;13.88;;;7.32;;
20296;SDS011;10307;40.100;18.336;2022-11-15T02:41:26;16.10;;;7.35;;
20296;SDS011;10307;40.100;18.336;2022-11-15T02:44:24;14.00;;;7.85;;
20296;SDS011;10307;40.100;18.336;2022-11-15T02:47:15;12.80;;;7.30;;
20296;SDS011;10307;40.100;18.336;2022-11-15T02:50:18;14.88;;;7.80;;
20296;SDS011;10307;40.100;18.336;2022-11-15T02:53:07;12.05;;;6.95;;
20296;SDS011;10307;40.100;18.336;2022-11-15T02:55:53;13.35;;;6.80;;
20296;SDS011;10307;40.100;18.336;2022-11-15T02:58:59;12.57;;;7.10;;
20296;SDS011;10307;40.100;18.336;2022-11-15T03:02:14;10.95;;;6.38;;
20296;SDS011;10307;40.100;18.336;2022-11-15T03:05:19;11.02;;;6.32;;
20296;SDS011;10307;40.100;18.336;2022-11-15T03:08:21;11.00;;;6.70;;
20296;SDS011;10307;40.100;18.336;2022-11-15T03:11:16;11.52;;;6.78;;
20296;SDS011;10307;40.100;18.336;2022-11-15T03:20:10;9.32;;;5.82;;
20296;SDS011;10307;40.100;18.336;2022-11-15T03:23:00;9.63;;;5.05;;
20296;SDS011;10307;40.100;18.336;2022-11-15T03:25:52;10.55;;;5.63;;
20296;SDS011;10307;40.100;18.336;2022-11-15T03:28:44;9.30;;;4.78;;
20296;SDS011;10307;40.100;18.336;2022-11-15T03:31:37;8.85;;;4.93;;
20296;SDS011;10307;40.100;18.336;2022-11-15T03:34:35;8.68;;;4.85;;
20296;SDS011;10307;40.100;18.336;2022-11-15T03:40:14;9.05;;;4.95;;
20296;SDS011;10307;40.100;18.336;2022-11-15T03:43:03;7.95;;;5.00;;
20296;SDS011;10307;40.100;18.336;2022-11-15T03:46:11;10.63;;;5.93;;
20296;SDS011;10307;40.100;18.336;2022-11-15T03:49:04;12.07;;;6.57;;
20296;SDS011;10307;40.100;18.336;2022-11-15T03:52:00;10.15;;;6.75;;
20296;SDS011;10307;40.100;18.336;2022-11-15T03:54:47;11.43;;;6.65;;
20296;SDS011;10307;40.100;18.336;2022-11-15T03:57:34;10.25;;;5.88;;
20296;SDS011;10307;40.100;18.336;2022-11-15T04:00:19;8.80;;;5.60;;
20296;SDS011;10307;40.100;18.336;2022-11-15T04:03:04;11.20;;;5.78;;
20296;SDS011;10307;40.100;18.336;2022-11-15T04:05:48;10.98;;;5.72;;
20296;SDS011;10307;40.100;18.336;2022-11-15T04:08:33;10.45;;;5.88;;
20296;SDS011;10307;40.100;18.336;2022-11-15T04:11:18;10.13;;;5.53;;
20296;SDS011;10307;40.100;18.336;2022-11-15T04:14:03;9.98;;;5.57;;
20296;SDS011;10307;40.100;18.336;2022-11-15T04:16:48;9.88;;;4.97;;
20296;SDS011;10307;40.100;18.336;2022-11-15T04:19:32;9.23;;;4.93;;
20296;SDS011;10307;40.100;18.336;2022-11-15T04:22:35;11.73;;;5.55;;
20296;SDS011;10307;40.100;18.336;2022-11-15T04:25:39;9.25;;;4.72;;
20296;SDS011;10307;40.100;18.336;2022-11-15T04:28:24;8.25;;;5.15;;
20296;SDS011;10307;40.100;18.336;2022-11-15T04:31:09;12.00;;;5.45;;
20296;SDS011;10307;40.100;18.336;2022-11-15T04:33:54;8.57;;;4.68;;
20296;SDS011;10307;40.100;18.336;2022-11-15T04:36:39;10.95;;;5.45;;
20296;SDS011;10307;40.100;18.336;2022-11-15T04:39:43;10.30;;;4.93;;
20296;SDS011;10307;40.100;18.336;2022-11-15T04:42:28;10.45;;;5.53;;
20296;SDS011;10307;40.100;18.336;2022-11-15T04:45:13;10.23;;;4.72;;
20296;SDS011;10307;40.100;18.336;2022-11-15T04:47:58;9.68;;;5.03;;
20296;SDS011;10307;40.100;18.336;2022-11-15T04:50:43;7.28;;;4.18;;
20296;SDS011;10307;40.100;18.336;2022-11-15T04:53:27;8.80;;;4.50;;
20296;SDS011;10307;40.100;18.336;2022-11-15T04:56:12;7.82;;;4.35;;
20296;SDS011;10307;40.100;18.336;2022-11-15T04:58:57;8.02;;;3.95;;
20296;SDS011;10307;40.100;18.336;2022-11-15T05:01:41;11.77;;;5.05;;
20296;SDS011;10307;40.100;18.336;2022-11-15T05:04:26;9.75;;;5.35;;
20296;SDS011;10307;40.100;18.336;2022-11-15T05:07:11;8.98;;;4.88;;
20296;SDS011;10307;40.100;18.336;2022-11-15T05:09:55;9.73;;;4.80;;
20296;SDS011;10307;40.100;18.336;2022-11-15T05:12:40;11.55;;;4.78;;
20296;SDS011;10307;40.100;18.336;2022-11-15T05:15:25;8.60;;;4.72;;
20296;SDS011;10307;40.100;18.336;2022-11-15T05:18:10;10.02;;;4.47;;
20296;SDS011;10307;40.100;18.336;2022-11-15T05:20:55;10.50;;;4.45;;
20296;SDS011;10307;40.100;18.336;2022-11-15T05:23:40;8.85;;;4.75;;
20296;SDS011;10307;40.100;18.336;2022-11-15T05:26:26;12.02;;;5.35;;
20296;SDS011;10307;40.100;18.336;2022-11-15T05:29:10;10.00;;;4.90;;
20296;SDS011;10307;40.100;18.336;2022-11-15T05:31:55;10.23;;;4.55;;
20296;SDS011;10307;40.100;18.336;2022-11-15T05:34:40;13.93;;;7.55;;
20296;SDS011;10307;40.100;18.336;2022-11-15T05:37:25;17.42;;;9.15;;
20296;SDS011;10307;40.100;18.336;2022-11-15T05:40:10;15.90;;;9.85;;
20296;SDS011;10307;40.100;18.336;2022-11-15T05:42:54;21.65;;;11.27;;
20296;SDS011;10307;40.100;18.336;2022-11-15T05:45:40;20.08;;;10.23;;
20296;SDS011;10307;40.100;18.336;2022-11-15T05:48:25;18.13;;;9.57;;
20296;SDS011;10307;40.100;18.336;2022-11-15T05:51:09;18.75;;;11.88;;
20296;SDS011;10307;40.100;18.336;2022-11-15T05:53:59;13.95;;;8.82;;
20296;SDS011;10307;40.100;18.336;2022-11-15T05:56:44;14.63;;;6.97;;
20296;SDS011;10307;40.100;18.336;2022-11-15T05:59:30;12.75;;;8.10;;
20296;SDS011;10307;40.100;18.336;2022-11-15T06:02:17;14.63;;;7.85;;
20296;SDS011;10307;40.100;18.336;2022-11-15T06:05:02;12.88;;;7.43;;
20296;SDS011;10307;40.100;18.336;2022-11-15T06:07:47;19.50;;;10.23;;
20296;SDS011;10307;40.100;18.336;2022-11-15T06:10:32;17.40;;;10.18;;
20296;SDS011;10307;40.100;18.336;2022-11-15T06:13:17;20.25;;;10.63;;
20296;SDS011;10307;40.100;18.336;2022-11-15T06:16:01;16.45;;;8.45;;
20296;SDS011;10307;40.100;18.336;2022-11-15T06:18:46;13.75;;;7.53;;
20296;SDS011;10307;40.100;18.336;2022-11-15T06:21:31;15.15;;;7.78;;
20296;SDS011;10307;40.100;18.336;2022-11-15T06:24:16;15.60;;;8.45;;
20296;SDS011;10307;40.100;18.336;2022-11-15T06:27:01;20.23;;;9.15;;
20296;SDS011;10307;40.100;18.336;2022-11-15T06:29:46;18.25;;;9.75;;
20296;SDS011;10307;40.100;18.336;2022-11-15T06:32:30;18.88;;;8.98;;
20296;SDS011;10307;40.100;18.336;2022-11-15T06:35:15;17.23;;;9.13;;
20296;SDS011;10307;40.100;18.336;2022-11-15T06:38:04;18.77;;;9.38;;
20296;SDS011;10307;40.100;18.336;2022-11-15T06:40:50;16.95;;;9.13;;
20296;SDS011;10307;40.100;18.336;2022-11-15T06:43:36;20.13;;;9.82;;
20296;SDS011;10307;40.100;18.336;2022-11-15T06:46:21;19.83;;;8.70;;
20296;SDS011;10307;40.100;18.336;2022-11-15T06:49:06;17.27;;;9.43;;
20296;SDS011;10307;40.100;18.336;2022-11-15T06:51:51;20.92;;;9.82;;
20296;SDS011;10307;40.100;18.336;2022-11-15T06:54:36;27.50;;;12.48;;
20296;SDS011;10307;40.100;18.336;2022-11-15T06:57:21;27.40;;;13.93;;
20296;SDS011;10307;40.100;18.336;2022-11-15T07:00:05;23.48;;;10.90;;
20296;SDS011;10307;40.100;18.336;2022-11-15T07:02:51;23.23;;;11.15;;
20296;SDS011;10307;40.100;18.336;2022-11-15T07:05:36;28.25;;;11.15;;
20296;SDS011;10307;40.100;18.336;2022-11-15T07:08:21;21.38;;;9.75;;
20296;SDS011;10307;40.100;18.336;2022-11-15T07:11:06;24.52;;;11.50;;
20296;SDS011;10307;40.100;18.336;2022-11-15T07:13:51;27.17;;;11.32;;
20296;SDS011;10307;40.100;18.336;2022-11-15T07:16:36;21.83;;;10.38;;
20296;SDS011;10307;40.100;18.336;2022-11-15T07:19:22;25.25;;;10.30;;
20296;SDS011;10307;40.100;18.336;2022-11-15T07:22:06;22.52;;;12.18;;
20296;SDS011;10307;40.100;18.336;2022-11-15T07:24:51;22.48;;;10.50;;
20296;SDS011;10307;40.100;18.336;2022-11-15T07:27:37;21.48;;;10.70;;
20296;SDS011;10307;40.100;18.336;2022-11-15T07:30:22;25.70;;;10.63;;
20296;SDS011;10307;40.100;18.336;2022-11-15T07:33:07;20.77;;;10.25;;
20296;SDS011;10307;40.100;18.336;2022-11-15T07:35:52;23.48;;;11.73;;
20296;SDS011;10307;40.100;18.336;2022-11-15T07:38:37;22.88;;;11.80;;
20296;SDS011;10307;40.100;18.336;2022-11-15T07:41:21;24.85;;;12.68;;
20296;SDS011;10307;40.100;18.336;2022-11-15T07:44:06;19.00;;;9.80;;
20296;SDS011;10307;40.100;18.336;2022-11-15T07:46:51;24.80;;;11.80;;
20296;SDS011;10307;40.100;18.336;2022-11-15T07:49:36;19.15;;;9.73;;
20296;SDS011;10307;40.100;18.336;2022-11-15T07:52:20;25.20;;;11.20;;
20296;SDS011;10307;40.100;18.336;2022-11-15T07:55:05;20.27;;;9.98;;
20296;SDS011;10307;40.100;18.336;2022-11-15T07:57:50;21.95;;;10.63;;
20296;SDS011;10307;40.100;18.336;2022-11-15T08:00:36;20.00;;;9.40;;
20296;SDS011;10307;40.100;18.336;2022-11-15T08:03:21;19.15;;;9.75;;
20296;SDS011;10307;40.100;18.336;2022-11-15T08:06:06;18.83;;;9.27;;
20296;SDS011;10307;40.100;18.336;2022-11-15T08:08:51;17.35;;;9.25;;
20296;SDS011;10307;40.100;18.336;2022-11-15T08:11:36;19.35;;;9.38;;
20296;SDS011;10307;40.100;18.336;2022-11-15T08:14:21;20.13;;;9.60;;
20296;SDS011;10307;40.100;18.336;2022-11-15T08:17:05;18.80;;;8.35;;
20296;SDS011;10307;40.100;18.336;2022-11-15T08:19:50;22.90;;;8.27;;
20296;SDS011;10307;40.100;18.336;2022-11-15T08:22:35;16.58;;;8.30;;
20296;SDS011;10307;40.100;18.336;2022-11-15T08:25:20;17.45;;;7.65;;
20296;SDS011;10307;40.100;18.336;2022-11-15T08:28:06;17.42;;;7.30;;
20296;SDS011;10307;40.100;18.336;2022-11-15T08:30:51;17.40;;;7.85;;
20296;SDS011;10307;40.100;18.336;2022-11-15T08:33:36;14.82;;;7.05;;
20296;SDS011;10307;40.100;18.336;2022-11-15T08:36:21;15.13;;;7.10;;
20296;SDS011;10307;40.100;18.336;2022-11-15T08:39:09;14.35;;;6.93;;
20296;SDS011;10307;40.100;18.336;2022-11-15T08:41:55;18.63;;;8.65;;
20296;SDS011;10307;40.100;18.336;2022-11-15T08:44:40;13.15;;;7.45;;
20296;SDS011;10307;40.100;18.336;2022-11-15T08:47:25;13.55;;;7.05;;
20296;SDS011;10307;40.100;18.336;2022-11-15T08:50:10;14.15;;;6.30;;
20296;SDS011;10307;40.100;18.336;2022-11-15T08:52:55;14.55;;;6.82;;
20296;SDS011;10307;40.100;18.336;2022-11-15T08:55:40;14.95;;;6.53;;
20296;SDS011;10307;40.100;18.336;2022-11-15T08:58:24;18.50;;;7.10;;
20296;SDS011;10307;40.100;18.336;2022-11-15T09:01:16;15.55;;;7.35;;
20296;SDS011;10307;40.100;18.336;2022-11-15T09:04:03;13.88;;;6.88;;
20296;SDS011;10307;40.100;18.336;2022-11-15T09:06:48;15.93;;;6.75;;
20296;SDS011;10307;40.100;18.336;2022-11-15T09:09:33;14.35;;;7.03;;
20296;SDS011;10307;40.100;18.336;2022-11-15T09:12:17;12.93;;;6.40;;
20296;SDS011;10307;40.100;18.336;2022-11-15T09:15:02;13.45;;;6.55;;
20296;SDS011;10307;40.100;18.336;2022-11-15T09:17:48;17.00;;;6.90;;
20296;SDS011;10307;40.100;18.336;2022-11-15T09:20:33;10.23;;;5.72;;
20296;SDS011;10307;40.100;18.336;2022-11-15T09:23:18;10.75;;;4.95;;
20296;SDS011;10307;40.100;18.336;2022-11-15T09:26:03;9.32;;;4.75;;
20296;SDS011;10307;40.100;18.336;2022-11-15T09:28:50;11.98;;;4.90;;
20296;SDS011;10307;40.100;18.336;2022-11-15T09:31:34;11.02;;;5.35;;
20296;SDS011;10307;40.100;18.336;2022-11-15T09:34:19;10.93;;;5.57;;
20296;SDS011;10307;40.100;18.336;2022-11-15T09:37:05;10.77;;;5.10;;
20296;SDS011;10307;40.100;18.336;2022-11-15T09:39:50;10.45;;;5.38;;
20296;SDS011;10307;40.100;18.336;2022-11-15T09:45:52;12.38;;;5.03;;
20296;SDS011;10307;40.100;18.336;2022-11-15T09:48:55;14.20;;;5.53;;
20296;SDS011;10307;40.100;18.336;2022-11-15T09:51:48;13.27;;;5.45;;
20296;SDS011;10307;40.100;18.336;2022-11-15T09:56:45;9.45;;;4.15;;
20296;SDS011;10307;40.100;18.336;2022-11-15T10:04:23;9.48;;;4.82;;
20296;SDS011;10307;40.100;18.336;2022-11-15T10:06:54;10.95;;;4.85;;
20296;SDS011;10307;40.100;18.336;2022-11-15T10:12:14;13.35;;;5.50;;
20296;SDS011;10307;40.100;18.336;2022-11-15T10:14:42;12.45;;;4.40;;
20296;SDS011;10307;40.100;18.336;2022-11-15T10:22:46;9.35;;;4.80;;
20296;SDS011;10307;40.100;18.336;2022-11-15T10:25:21;7.38;;;4.22;;
20296;SDS011;10307;40.100;18.336;2022-11-15T10:30:39;9.80;;;4.45;;
20296;SDS011;10307;40.100;18.336;2022-11-15T10:36:37;7.85;;;3.50;;
20296;SDS011;10307;40.100;18.336;2022-11-15T10:46:45;13.55;;;3.65;;
20296;SDS011;10307;40.100;18.336;2022-11-15T10:49:19;9.10;;;3.67;;
20296;SDS011;10307;40.100;18.336;2022-11-15T10:51:54;9.18;;;3.72;;
20296;SDS011;10307;40.100;18.336;2022-11-15T10:54:24;6.93;;;3.45;;
20296;SDS011;10307;40.100;18.336;2022-11-15T10:56:51;9.90;;;4.05;;
20296;SDS011;10307;40.100;18.336;2022-11-15T10:59:23;9.50;;;4.60;;
20296;SDS011;10307;40.100;18.336;2022-11-15T11:01:53;156.23;;;78.45;;
20296;SDS011;10307;40.100;18.336;2022-11-15T11:04:20;47.13;;;25.17;;
20296;SDS011;10307;40.100;18.336;2022-11-15T11:06:48;11.32;;;6.68;;
20296;SDS011;10307;40.100;18.336;2022-11-15T11:09:32;11.10;;;4.00;;
20296;SDS011;10307;40.100;18.336;2022-11-15T11:12:01;9.30;;;4.47;;
20296;SDS011;10307;40.100;18.336;2022-11-15T11:14:32;8.70;;;4.88;;
20296;SDS011;10307;40.100;18.336;2022-11-15T11:30:45;6.57;;;2.95;;
20296;SDS011;10307;40.100;18.336;2022-11-15T11:42:25;7.13;;;2.78;;
20296;SDS011;10307;40.100;18.336;2022-11-15T11:47:48;9.93;;;4.13;;
20296;SDS011;10307;40.100;18.336;2022-11-15T11:50:25;35.28;;;21.23;;
20296;SDS011;10307;40.100;18.336;2022-11-15T11:58:26;12.93;;;7.43;;
20296;SDS011;10307;40.100;18.336;2022-11-15T12:03:48;39.88;;;26.23;;
20296;SDS011;10307;40.100;18.336;2022-11-15T12:06:36;21.40;;;19.05;;
20296;SDS011;10307;40.100;18.336;2022-11-15T12:16:58;17.00;;;11.07;;
20296;SDS011;10307;40.100;18.336;2022-11-15T12:19:25;10.55;;;7.75;;
20296;SDS011;10307;40.100;18.336;2022-11-15T12:21:57;15.43;;;9.63;;
20296;SDS011;10307;40.100;18.336;2022-11-15T12:24:37;7.93;;;4.93;;
20296;SDS011;10307;40.100;18.336;2022-11-15T12:27:41;9.30;;;4.07;;
20296;SDS011;10307;40.100;18.336;2022-11-15T12:30:22;23.63;;;16.25;;
20296;SDS011;10307;40.100;18.336;2022-11-15T12:33:00;9.10;;;4.93;;
20296;SDS011;10307;40.100;18.336;2022-11-15T12:35:37;7.28;;;3.28;;
20296;SDS011;10307;40.100;18.336;2022-11-15T12:38:09;7.40;;;3.65;;
20296;SDS011;10307;40.100;18.336;2022-11-15T12:41:13;5.90;;;3.00;;
20296;SDS011;10307;40.100;18.336;2022-11-15T12:43:46;7.10;;;3.78;;
20296;SDS011;10307;40.100;18.336;2022-11-15T12:46:21;7.18;;;3.53;;
20296;SDS011;10307;40.100;18.336;2022-11-15T12:48:51;9.00;;;3.65;;
20296;SDS011;10307;40.100;18.336;2022-11-15T12:51:21;7.55;;;3.15;;
20296;SDS011;10307;40.100;18.336;2022-11-15T12:59:48;8.75;;;2.80;;
20296;SDS011;10307;40.100;18.336;2022-11-15T13:04:44;9.40;;;3.70;;
20296;SDS011;10307;40.100;18.336;2022-11-15T13:17:43;9.57;;;3.90;;
20296;SDS011;10307;40.100;18.336;2022-11-15T13:20:21;7.45;;;3.38;;
20296;SDS011;10307;40.100;18.336;2022-11-15T13:22:49;8.27;;;3.42;;
20296;SDS011;10307;40.100;18.336;2022-11-15T13:27:50;7.22;;;3.35;;
20296;SDS011;10307;40.100;18.336;2022-11-15T13:30:21;6.00;;;2.70;;
20296;SDS011;10307;40.100;18.336;2022-11-15T13:32:49;12.25;;;3.17;;
20296;SDS011;10307;40.100;18.336;2022-11-15T13:35:21;7.60;;;3.47;;
20296;SDS011;10307;40.100;18.336;2022-11-15T13:37:49;7.90;;;2.60;;
20296;SDS011;10307;40.100;18.336;2022-11-15T13:40:26;7.32;;;2.90;;
20296;SDS011;10307;40.100;18.336;2022-11-15T13:42:57;9.20;;;3.35;;
20296;SDS011;10307;40.100;18.336;2022-11-15T13:45:24;7.63;;;3.35;;
20296;SDS011;10307;40.100;18.336;2022-11-15T13:47:55;5.85;;;2.95;;
20296;SDS011;10307;40.100;18.336;2022-11-15T13:50:26;5.60;;;2.70;;
20296;SDS011;10307;40.100;18.336;2022-11-15T13:52:57;8.32;;;3.25;;
20296;SDS011;10307;40.100;18.336;2022-11-15T13:55:26;10.18;;;3.70;;
20296;SDS011;10307;40.100;18.336;2022-11-15T13:57:56;10.05;;;4.03;;
20296;SDS011;10307;40.100;18.336;2022-11-15T14:03:51;7.15;;;3.25;;
20296;SDS011;10307;40.100;18.336;2022-11-15T14:06:06;9.05;;;3.47;;
20296;SDS011;10307;40.100;18.336;2022-11-15T14:08:40;10.05;;;4.28;;
20296;SDS011;10307;40.100;18.336;2022-11-15T14:11:22;8.90;;;3.90;;
20296;SDS011;10307;40.100;18.336;2022-11-15T14:16:34;6.63;;;3.10;;
20296;SDS011;10307;40.100;18.336;2022-11-15T14:21:34;7.38;;;3.42;;
20296;SDS011;10307;40.100;18.336;2022-11-15T14:24:20;7.65;;;4.32;;
20296;SDS011;10307;40.100;18.336;2022-11-15T14:26:47;9.05;;;4.10;;
20296;SDS011;10307;40.100;18.336;2022-11-15T14:31:54;6.93;;;3.50;;
20296;SDS011;10307;40.100;18.336;2022-11-15T14:34:41;9.10;;;4.50;;
20296;SDS011;10307;40.100;18.336;2022-11-15T14:37:27;8.80;;;4.97;;
20296;SDS011;10307;40.100;18.336;2022-11-15T14:40:02;13.45;;;9.25;;
20296;SDS011;10307;40.100;18.336;2022-11-15T14:42:29;12.02;;;7.35;;
20296;SDS011;10307;40.100;18.336;2022-11-15T14:44:55;16.85;;;6.70;;
20296;SDS011;10307;40.100;18.336;2022-11-15T14:47:22;31.65;;;23.67;;
20296;SDS011;10307;40.100;18.336;2022-11-15T14:49:48;15.23;;;10.65;;
20296;SDS011;10307;40.100;18.336;2022-11-15T14:52:27;11.13;;;4.68;;
20296;SDS011;10307;40.100;18.336;2022-11-15T14:54:55;15.77;;;5.93;;
20296;SDS011;10307;40.100;18.336;2022-11-15T14:57:23;15.80;;;6.05;;
20296;SDS011;10307;40.100;18.336;2022-11-15T14:59:50;10.98;;;6.15;;
20296;SDS011;10307;40.100;18.336;2022-11-15T15:02:18;10.13;;;4.40;;
20296;SDS011;10307;40.100;18.336;2022-11-15T15:04:46;8.35;;;4.75;;
20296;SDS011;10307;40.100;18.336;2022-11-15T15:07:13;10.05;;;6.32;;
20296;SDS011;10307;40.100;18.336;2022-11-15T15:09:40;11.05;;;5.22;;
20296;SDS011;10307;40.100;18.336;2022-11-15T15:12:20;13.82;;;8.88;;
20296;SDS011;10307;40.100;18.336;2022-11-15T15:14:48;14.98;;;9.88;;
20296;SDS011;10307;40.100;18.336;2022-11-15T15:17:15;13.32;;;9.68;;
20296;SDS011;10307;40.100;18.336;2022-11-15T15:19:42;14.02;;;10.32;;
20296;SDS011;10307;40.100;18.336;2022-11-15T15:22:10;27.60;;;19.08;;
20296;SDS011;10307;40.100;18.336;2022-11-15T15:24:41;19.67;;;14.35;;
20296;SDS011;10307;40.100;18.336;2022-11-15T15:27:08;19.30;;;10.98;;
20296;SDS011;10307;40.100;18.336;2022-11-15T15:29:35;18.02;;;11.20;;
20296;SDS011;10307;40.100;18.336;2022-11-15T15:32:02;23.23;;;11.57;;
20296;SDS011;10307;40.100;18.336;2022-11-15T15:34:29;21.08;;;12.05;;
20296;SDS011;10307;40.100;18.336;2022-11-15T15:39:43;19.70;;;12.85;;
20296;SDS011;10307;40.100;18.336;2022-11-15T15:42:10;19.00;;;11.63;;
20296;SDS011;10307;40.100;18.336;2022-11-15T15:44:36;18.15;;;11.35;;
20296;SDS011;10307;40.100;18.336;2022-11-15T15:47:06;14.70;;;8.23;;
20296;SDS011;10307;40.100;18.336;2022-11-15T15:49:41;31.17;;;18.35;;
20296;SDS011;10307;40.100;18.336;2022-11-15T15:52:07;21.33;;;14.98;;
20296;SDS011;10307;40.100;18.336;2022-11-15T15:54:34;24.80;;;14.80;;
20296;SDS011;10307;40.100;18.336;2022-11-15T15:57:01;23.77;;;15.93;;
20296;SDS011;10307;40.100;18.336;2022-11-15T15:59:27;18.52;;;12.55;;
20296;SDS011;10307;40.100;18.336;2022-11-15T16:01:54;21.58;;;13.32;;
20296;SDS011;10307;40.100;18.336;2022-11-15T16:04:20;19.15;;;12.70;;
20296;SDS011;10307;40.100;18.336;2022-11-15T16:06:47;30.92;;;15.48;;
20296;SDS011;10307;40.100;18.336;2022-11-15T16:09:16;23.67;;;13.38;;
20296;SDS011;10307;40.100;18.336;2022-11-15T16:11:44;16.67;;;10.02;;
20296;SDS011;10307;40.100;18.336;2022-11-15T16:14:11;15.23;;;8.95;;
20296;SDS011;10307;40.100;18.336;2022-11-15T16:16:38;16.67;;;11.30;;
20296;SDS011;10307;40.100;18.336;2022-11-15T16:19:04;27.38;;;16.20;;
20296;SDS011;10307;40.100;18.336;2022-11-15T16:21:30;27.20;;;16.70;;
20296;SDS011;10307;40.100;18.336;2022-11-15T16:23:56;41.03;;;25.15;;
20296;SDS011;10307;40.100;18.336;2022-11-15T16:26:26;27.13;;;17.33;;
20296;SDS011;10307;40.100;18.336;2022-11-15T16:28:54;32.40;;;18.67;;
20296;SDS011;10307;40.100;18.336;2022-11-15T16:31:21;30.23;;;19.48;;
20296;SDS011;10307;40.100;18.336;2022-11-15T16:33:47;27.17;;;20.23;;
20296;SDS011;10307;40.100;18.336;2022-11-15T16:36:24;34.75;;;22.05;;
20296;SDS011;10307;40.100;18.336;2022-11-15T16:38:51;34.30;;;22.20;;
20296;SDS011;10307;40.100;18.336;2022-11-15T16:41:18;28.33;;;19.48;;
20296;SDS011;10307;40.100;18.336;2022-11-15T16:43:48;26.65;;;18.20;;
20296;SDS011;10307;40.100;18.336;2022-11-15T16:46:18;34.83;;;21.23;;
20296;SDS011;10307;40.100;18.336;2022-11-15T16:51:13;44.80;;;24.40;;
20296;SDS011;10307;40.100;18.336;2022-11-15T16:53:39;42.28;;;26.52;;
20296;SDS011;10307;40.100;18.336;2022-11-15T16:58:47;39.33;;;25.58;;
20296;SDS011;10307;40.100;18.336;2022-11-15T17:01:18;49.92;;;29.35;;
20296;SDS011;10307;40.100;18.336;2022-11-15T17:03:49;42.25;;;29.80;;
20296;SDS011;10307;40.100;18.336;2022-11-15T17:06:15;42.55;;;28.83;;
20296;SDS011;10307;40.100;18.336;2022-11-15T17:08:43;38.60;;;28.20;;
20296;SDS011;10307;40.100;18.336;2022-11-15T17:11:15;37.53;;;24.90;;
20296;SDS011;10307;40.100;18.336;2022-11-15T17:13:43;40.25;;;24.52;;
20296;SDS011;10307;40.100;18.336;2022-11-15T17:16:11;37.55;;;23.15;;
20296;SDS011;10307;40.100;18.336;2022-11-15T17:18:39;41.97;;;28.75;;
20296;SDS011;10307;40.100;18.336;2022-11-15T17:21:06;69.25;;;41.67;;
20296;SDS011;10307;40.100;18.336;2022-11-15T17:23:43;77.63;;;47.20;;
20296;SDS011;10307;40.100;18.336;2022-11-15T17:26:10;69.88;;;41.35;;
20296;SDS011;10307;40.100;18.336;2022-11-15T17:28:38;64.32;;;36.28;;
20296;SDS011;10307;40.100;18.336;2022-11-15T17:31:08;47.25;;;29.75;;
20296;SDS011;10307;40.100;18.336;2022-11-15T17:33:36;75.80;;;39.10;;
20296;SDS011;10307;40.100;18.336;2022-11-15T17:36:04;55.55;;;31.95;;
20296;SDS011;10307;40.100;18.336;2022-11-15T17:38:32;39.13;;;22.52;;
20296;SDS011;10307;40.100;18.336;2022-11-15T17:41:03;44.60;;;25.08;;
20296;SDS011;10307;40.100;18.336;2022-11-15T17:43:30;59.50;;;37.78;;
20296;SDS011;10307;40.100;18.336;2022-11-15T17:45:58;67.53;;;43.53;;
20296;SDS011;10307;40.100;18.336;2022-11-15T17:48:29;72.07;;;41.70;;
20296;SDS011;10307;40.100;18.336;2022-11-15T17:50:56;67.85;;;41.10;;